Kezdőlap
METAR-TAF:

METAR-TAF

Repülőterek :

Hobart, Oklahoma, Amerikai Egyesült Államok

földrajzi szélesség: 34-59-22N, földrajzi hosszúság: 099-03-09W, magasság: 476 m

Jelenlegi meteorológiai megfigyelések

A jelentés 1 órával és 2 perccel ezelõtt készült, 01:53 UTC
Déli szél 10 kt
Hőmérséklet 30°C
Páratartalom 52%
Légköri nyomás 1017 hPa
Látótávolság: 14.5 km
Derült ég

METAR: KHBR 220153Z AUTO 18010KT 9SM CLR 30/19 A3004 RMK AO2 SLP150 T03000189

Idő: 21:55 (02:55 UTC)


TAF: hiányzik

Meteorológiai megfigyelések és előrejelzések több, mint 4000 repülőtéren (METAR és TAF jelentéseket).

A térképen piros és sárga pontok jelzik az elérhető meteorológiai állomásokat.

Mozgassa az egeret a pont fölött, hogy megjelenjen az állomás neve.

Azután kattintson az időjárási megfigyelések és előrejelzések megtekintéséhez.

A térkép megváltoztatása: kattintson a fekete keresztel jelölt zöld gombra ráközelítéshez, a vonallal jelölt zöld gombra távolításhoz, vagy a zöld nyilakra a szomszédos térképek eléréséhez.


METAR-TAF: